sensor_id;sensor_type;location;lat;lon;timestamp;temperature;humidity
2751;DHT22;1383;48.362;10.908;2022-07-03T00:02:19;18.80;47.30
2751;DHT22;1383;48.362;10.908;2022-07-03T00:04:46;18.80;47.70
2751;DHT22;1383;48.362;10.908;2022-07-03T00:07:13;18.80;49.00
2751;DHT22;1383;48.362;10.908;2022-07-03T00:09:40;18.70;49.00
2751;DHT22;1383;48.362;10.908;2022-07-03T00:12:07;18.60;50.00
2751;DHT22;1383;48.362;10.908;2022-07-03T00:14:34;18.50;50.70
2751;DHT22;1383;48.362;10.908;2022-07-03T00:17:01;18.50;50.90
2751;DHT22;1383;48.362;10.908;2022-07-03T00:19:28;18.40;51.30
2751;DHT22;1383;48.362;10.908;2022-07-03T00:22:02;18.40;51.50
2751;DHT22;1383;48.362;10.908;2022-07-03T00:24:33;18.30;52.00
2751;DHT22;1383;48.362;10.908;2022-07-03T00:27:07;18.20;52.20
2751;DHT22;1383;48.362;10.908;2022-07-03T00:29:42;18.20;52.40
2751;DHT22;1383;48.362;10.908;2022-07-03T00:32:13;18.10;52.50
2751;DHT22;1383;48.362;10.908;2022-07-03T00:34:41;18.10;52.40
2751;DHT22;1383;48.362;10.908;2022-07-03T00:37:10;18.00;52.80
2751;DHT22;1383;48.362;10.908;2022-07-03T00:39:39;18.10;52.50
2751;DHT22;1383;48.362;10.908;2022-07-03T00:42:07;18.10;52.40
2751;DHT22;1383;48.362;10.908;2022-07-03T00:44:45;18.00;52.50
2751;DHT22;1383;48.362;10.908;2022-07-03T00:47:13;18.00;52.50
2751;DHT22;1383;48.362;10.908;2022-07-03T00:49:43;18.00;52.60
2751;DHT22;1383;48.362;10.908;2022-07-03T00:52:11;17.90;52.60
2751;DHT22;1383;48.362;10.908;2022-07-03T00:54:51;17.90;53.10
2751;DHT22;1383;48.362;10.908;2022-07-03T00:57:19;17.90;53.40
2751;DHT22;1383;48.362;10.908;2022-07-03T00:59:46;17.80;54.00
2751;DHT22;1383;48.362;10.908;2022-07-03T01:10:37;17.60;56.50
2751;DHT22;1383;48.362;10.908;2022-07-03T01:13:25;17.50;57.20
2751;DHT22;1383;48.362;10.908;2022-07-03T01:16:07;17.50;57.90
2751;DHT22;1383;48.362;10.908;2022-07-03T01:21:41;17.40;58.10
2751;DHT22;1383;48.362;10.908;2022-07-03T01:24:40;17.40;58.70
2751;DHT22;1383;48.362;10.908;2022-07-03T01:27:28;17.30;58.50
2751;DHT22;1383;48.362;10.908;2022-07-03T01:30:07;17.30;58.90
2751;DHT22;1383;48.362;10.908;2022-07-03T01:32:45;17.20;59.10
2751;DHT22;1383;48.362;10.908;2022-07-03T01:35:21;17.20;59.50
2751;DHT22;1383;48.362;10.908;2022-07-03T01:37:50;17.20;59.30
2751;DHT22;1383;48.362;10.908;2022-07-03T01:40:17;17.20;59.20
2751;DHT22;1383;48.362;10.908;2022-07-03T01:42:45;17.20;59.60
2751;DHT22;1383;48.362;10.908;2022-07-03T01:45:14;17.10;60.30
2751;DHT22;1383;48.362;10.908;2022-07-03T01:47:42;17.00;60.40
2751;DHT22;1383;48.362;10.908;2022-07-03T01:50:14;17.00;60.60
2751;DHT22;1383;48.362;10.908;2022-07-03T01:52:44;16.90;61.20
2751;DHT22;1383;48.362;10.908;2022-07-03T01:55:13;16.90;62.20
2751;DHT22;1383;48.362;10.908;2022-07-03T01:57:47;16.90;61.70
2751;DHT22;1383;48.362;10.908;2022-07-03T02:00:20;16.90;61.30
2751;DHT22;1383;48.362;10.908;2022-07-03T02:03:07;16.90;61.30
2751;DHT22;1383;48.362;10.908;2022-07-03T02:05:45;16.80;61.70
2751;DHT22;1383;48.362;10.908;2022-07-03T02:11:09;16.70;63.00
2751;DHT22;1383;48.362;10.908;2022-07-03T02:14:06;16.70;63.80
2751;DHT22;1383;48.362;10.908;2022-07-03T02:17:05;16.70;63.50
2751;DHT22;1383;48.362;10.908;2022-07-03T02:19:57;16.60;63.40
2751;DHT22;1383;48.362;10.908;2022-07-03T02:22:34;16.60;63.30
2751;DHT22;1383;48.362;10.908;2022-07-03T02:25:04;16.60;64.20
2751;DHT22;1383;48.362;10.908;2022-07-03T02:27:39;16.60;64.30
2751;DHT22;1383;48.362;10.908;2022-07-03T02:30:08;16.50;64.40
2751;DHT22;1383;48.362;10.908;2022-07-03T02:32:47;16.50;65.40
2751;DHT22;1383;48.362;10.908;2022-07-03T02:37:50;16.30;65.30
2751;DHT22;1383;48.362;10.908;2022-07-03T02:43:36;16.30;65.90
2751;DHT22;1383;48.362;10.908;2022-07-03T02:46:12;16.20;66.00
2751;DHT22;1383;48.362;10.908;2022-07-03T02:52:10;16.30;66.00
2751;DHT22;1383;48.362;10.908;2022-07-03T02:54:44;16.20;66.10
2751;DHT22;1383;48.362;10.908;2022-07-03T02:57:21;16.20;66.60
2751;DHT22;1383;48.362;10.908;2022-07-03T02:59:56;16.20;66.60
2751;DHT22;1383;48.362;10.908;2022-07-03T03:02:49;16.10;66.50
2751;DHT22;1383;48.362;10.908;2022-07-03T03:05:26;16.10;66.80
2751;DHT22;1383;48.362;10.908;2022-07-03T03:10:47;16.10;67.10
2751;DHT22;1383;48.362;10.908;2022-07-03T03:13:18;16.10;67.20
2751;DHT22;1383;48.362;10.908;2022-07-03T03:15:57;16.10;67.30
2751;DHT22;1383;48.362;10.908;2022-07-03T03:18:27;16.10;67.60
2751;DHT22;1383;48.362;10.908;2022-07-03T03:20:59;16.20;68.00
2751;DHT22;1383;48.362;10.908;2022-07-03T03:23:49;16.20;68.00
2751;DHT22;1383;48.362;10.908;2022-07-03T03:26:20;16.20;67.60
2751;DHT22;1383;48.362;10.908;2022-07-03T03:28:47;16.10;68.40
2751;DHT22;1383;48.362;10.908;2022-07-03T03:31:15;16.10;68.80
2751;DHT22;1383;48.362;10.908;2022-07-03T03:33:44;16.10;68.70
2751;DHT22;1383;48.362;10.908;2022-07-03T03:36:13;16.00;69.00
2751;DHT22;1383;48.362;10.908;2022-07-03T03:38:40;16.00;70.30
2751;DHT22;1383;48.362;10.908;2022-07-03T03:41:08;16.00;70.50
2751;DHT22;1383;48.362;10.908;2022-07-03T03:43:42;15.90;70.10
2751;DHT22;1383;48.362;10.908;2022-07-03T03:46:09;15.90;71.00
2751;DHT22;1383;48.362;10.908;2022-07-03T03:48:36;16.00;71.40
2751;DHT22;1383;48.362;10.908;2022-07-03T03:51:04;16.00;71.80
2751;DHT22;1383;48.362;10.908;2022-07-03T03:53:31;16.00;72.90
2751;DHT22;1383;48.362;10.908;2022-07-03T03:56:04;16.00;73.50
2751;DHT22;1383;48.362;10.908;2022-07-03T03:58:32;16.00;73.60
2751;DHT22;1383;48.362;10.908;2022-07-03T04:01:01;16.00;73.40
2751;DHT22;1383;48.362;10.908;2022-07-03T04:03:29;16.10;73.70
2751;DHT22;1383;48.362;10.908;2022-07-03T04:05:57;16.10;73.30
2751;DHT22;1383;48.362;10.908;2022-07-03T04:08:25;16.10;72.80
2751;DHT22;1383;48.362;10.908;2022-07-03T04:10:52;16.10;72.00
2751;DHT22;1383;48.362;10.908;2022-07-03T04:13:19;16.20;71.80
2751;DHT22;1383;48.362;10.908;2022-07-03T04:15:47;16.20;71.10
2751;DHT22;1383;48.362;10.908;2022-07-03T04:18:15;16.30;70.40
2751;DHT22;1383;48.362;10.908;2022-07-03T04:20:42;16.40;69.90
2751;DHT22;1383;48.362;10.908;2022-07-03T04:23:09;16.40;69.70
2751;DHT22;1383;48.362;10.908;2022-07-03T04:25:36;16.40;71.20
2751;DHT22;1383;48.362;10.908;2022-07-03T04:28:03;16.50;70.10
2751;DHT22;1383;48.362;10.908;2022-07-03T04:30:47;16.50;70.10
2751;DHT22;1383;48.362;10.908;2022-07-03T04:33:14;16.60;69.90
2751;DHT22;1383;48.362;10.908;2022-07-03T04:35:41;16.60;69.80
2751;DHT22;1383;48.362;10.908;2022-07-03T04:38:08;16.70;70.10
2751;DHT22;1383;48.362;10.908;2022-07-03T04:40:35;16.80;70.30
2751;DHT22;1383;48.362;10.908;2022-07-03T04:43:02;16.80;70.10
2751;DHT22;1383;48.362;10.908;2022-07-03T04:45:29;16.90;70.30
2751;DHT22;1383;48.362;10.908;2022-07-03T04:47:55;17.00;70.00
2751;DHT22;1383;48.362;10.908;2022-07-03T04:50:22;17.00;70.10
2751;DHT22;1383;48.362;10.908;2022-07-03T04:52:49;17.10;70.40
2751;DHT22;1383;48.362;10.908;2022-07-03T04:55:16;17.10;70.40
2751;DHT22;1383;48.362;10.908;2022-07-03T04:57:42;17.20;70.30
2751;DHT22;1383;48.362;10.908;2022-07-03T05:00:09;17.30;70.20
2751;DHT22;1383;48.362;10.908;2022-07-03T05:02:36;17.40;69.70
2751;DHT22;1383;48.362;10.908;2022-07-03T05:05:04;17.60;69.60
2751;DHT22;1383;48.362;10.908;2022-07-03T05:07:30;17.70;69.40
2751;DHT22;1383;48.362;10.908;2022-07-03T05:09:57;17.90;68.70
2751;DHT22;1383;48.362;10.908;2022-07-03T05:12:25;18.10;67.70
2751;DHT22;1383;48.362;10.908;2022-07-03T05:14:51;18.40;66.60
2751;DHT22;1383;48.362;10.908;2022-07-03T05:17:19;18.70;64.60
2751;DHT22;1383;48.362;10.908;2022-07-03T05:19:46;19.00;63.00
2751;DHT22;1383;48.362;10.908;2022-07-03T05:22:13;19.40;61.30
2751;DHT22;1383;48.362;10.908;2022-07-03T05:24:40;19.80;59.20
2751;DHT22;1383;48.362;10.908;2022-07-03T05:27:07;20.30;57.60
2751;DHT22;1383;48.362;10.908;2022-07-03T05:29:34;20.90;55.50
2751;DHT22;1383;48.362;10.908;2022-07-03T05:32:05;21.40;52.50
2751;DHT22;1383;48.362;10.908;2022-07-03T05:34:31;21.90;50.70
2751;DHT22;1383;48.362;10.908;2022-07-03T05:36:58;22.40;49.30
2751;DHT22;1383;48.362;10.908;2022-07-03T05:39:25;22.80;47.00
2751;DHT22;1383;48.362;10.908;2022-07-03T05:42:01;23.20;45.70
2751;DHT22;1383;48.362;10.908;2022-07-03T05:44:28;23.60;44.30
2751;DHT22;1383;48.362;10.908;2022-07-03T05:46:55;23.90;43.40
2751;DHT22;1383;48.362;10.908;2022-07-03T05:49:22;24.20;42.30
2751;DHT22;1383;48.362;10.908;2022-07-03T05:51:49;24.40;42.10
2751;DHT22;1383;48.362;10.908;2022-07-03T05:54:16;24.60;41.60
2751;DHT22;1383;48.362;10.908;2022-07-03T05:56:43;24.90;40.40
2751;DHT22;1383;48.362;10.908;2022-07-03T05:59:09;25.00;40.10
2751;DHT22;1383;48.362;10.908;2022-07-03T06:01:36;25.30;38.70
2751;DHT22;1383;48.362;10.908;2022-07-03T06:04:03;25.60;38.60
2751;DHT22;1383;48.362;10.908;2022-07-03T06:06:30;26.10;37.10
2751;DHT22;1383;48.362;10.908;2022-07-03T06:08:57;26.50;36.10
2751;DHT22;1383;48.362;10.908;2022-07-03T06:11:24;26.90;35.30
2751;DHT22;1383;48.362;10.908;2022-07-03T06:13:51;27.20;34.70
2751;DHT22;1383;48.362;10.908;2022-07-03T06:16:18;27.40;33.60
2751;DHT22;1383;48.362;10.908;2022-07-03T06:18:45;27.60;33.50
2751;DHT22;1383;48.362;10.908;2022-07-03T06:21:12;27.70;33.00
2751;DHT22;1383;48.362;10.908;2022-07-03T06:23:39;27.60;32.50
2751;DHT22;1383;48.362;10.908;2022-07-03T06:26:14;27.50;33.50
2751;DHT22;1383;48.362;10.908;2022-07-03T06:28:42;27.70;32.50
2751;DHT22;1383;48.362;10.908;2022-07-03T06:31:09;28.00;32.40
2751;DHT22;1383;48.362;10.908;2022-07-03T06:33:36;27.80;32.20
2751;DHT22;1383;48.362;10.908;2022-07-03T06:36:03;28.00;32.60
2751;DHT22;1383;48.362;10.908;2022-07-03T06:38:30;28.40;31.30
2751;DHT22;1383;48.362;10.908;2022-07-03T06:40:56;28.60;31.20
2751;DHT22;1383;48.362;10.908;2022-07-03T06:43:23;29.00;30.30
2751;DHT22;1383;48.362;10.908;2022-07-03T06:45:50;29.40;29.70
2751;DHT22;1383;48.362;10.908;2022-07-03T06:48:17;29.70;29.30
2751;DHT22;1383;48.362;10.908;2022-07-03T06:50:46;29.80;28.70
2751;DHT22;1383;48.362;10.908;2022-07-03T06:53:13;30.00;28.80
2751;DHT22;1383;48.362;10.908;2022-07-03T06:55:40;30.40;28.00
2751;DHT22;1383;48.362;10.908;2022-07-03T06:58:07;30.50;27.70
2751;DHT22;1383;48.362;10.908;2022-07-03T07:00:34;30.90;27.50
2751;DHT22;1383;48.362;10.908;2022-07-03T07:03:00;31.10;26.50
2751;DHT22;1383;48.362;10.908;2022-07-03T07:05:27;31.40;26.30
2751;DHT22;1383;48.362;10.908;2022-07-03T07:07:54;31.60;26.30
2751;DHT22;1383;48.362;10.908;2022-07-03T07:10:21;31.80;25.50
2751;DHT22;1383;48.362;10.908;2022-07-03T07:12:48;31.90;25.30
2751;DHT22;1383;48.362;10.908;2022-07-03T07:15:15;32.10;24.70
2751;DHT22;1383;48.362;10.908;2022-07-03T07:17:42;32.30;24.10
2751;DHT22;1383;48.362;10.908;2022-07-03T07:20:09;32.40;24.10
2751;DHT22;1383;48.362;10.908;2022-07-03T07:22:36;32.60;23.60
2751;DHT22;1383;48.362;10.908;2022-07-03T07:25:03;32.70;23.40
2751;DHT22;1383;48.362;10.908;2022-07-03T07:27:30;32.80;22.90
2751;DHT22;1383;48.362;10.908;2022-07-03T07:29:57;32.60;22.90
2751;DHT22;1383;48.362;10.908;2022-07-03T07:32:24;32.50;22.60
2751;DHT22;1383;48.362;10.908;2022-07-03T07:34:50;32.60;23.30
2751;DHT22;1383;48.362;10.908;2022-07-03T07:37:17;32.30;23.00
2751;DHT22;1383;48.362;10.908;2022-07-03T07:39:44;32.40;23.20
2751;DHT22;1383;48.362;10.908;2022-07-03T07:42:11;32.60;22.80
2751;DHT22;1383;48.362;10.908;2022-07-03T07:44:39;32.90;22.70
2751;DHT22;1383;48.362;10.908;2022-07-03T07:47:06;33.00;22.20
2751;DHT22;1383;48.362;10.908;2022-07-03T07:49:33;32.90;22.40
2751;DHT22;1383;48.362;10.908;2022-07-03T07:51:59;33.00;21.90
2751;DHT22;1383;48.362;10.908;2022-07-03T07:54:26;32.90;22.20
2751;DHT22;1383;48.362;10.908;2022-07-03T07:56:53;32.90;21.80
2751;DHT22;1383;48.362;10.908;2022-07-03T07:59:20;33.10;21.90
2751;DHT22;1383;48.362;10.908;2022-07-03T08:01:47;33.30;21.70
2751;DHT22;1383;48.362;10.908;2022-07-03T08:04:32;33.50;21.50
2751;DHT22;1383;48.362;10.908;2022-07-03T08:07:17;33.80;21.20
2751;DHT22;1383;48.362;10.908;2022-07-03T08:09:44;33.70;20.90
2751;DHT22;1383;48.362;10.908;2022-07-03T08:12:11;33.80;20.90
2751;DHT22;1383;48.362;10.908;2022-07-03T08:14:38;34.00;20.30
2751;DHT22;1383;48.362;10.908;2022-07-03T08:17:06;34.30;19.90
2751;DHT22;1383;48.362;10.908;2022-07-03T08:19:32;34.30;19.20
2751;DHT22;1383;48.362;10.908;2022-07-03T08:21:59;34.30;19.00
2751;DHT22;1383;48.362;10.908;2022-07-03T08:24:28;34.10;19.30
2751;DHT22;1383;48.362;10.908;2022-07-03T08:26:55;34.10;17.80
2751;DHT22;1383;48.362;10.908;2022-07-03T08:29:21;34.30;17.80
2751;DHT22;1383;48.362;10.908;2022-07-03T08:31:48;34.50;18.00
2751;DHT22;1383;48.362;10.908;2022-07-03T08:34:15;34.60;17.10
2751;DHT22;1383;48.362;10.908;2022-07-03T08:36:42;34.30;16.60
2751;DHT22;1383;48.362;10.908;2022-07-03T08:39:09;34.30;14.10
2751;DHT22;1383;48.362;10.908;2022-07-03T08:41:37;34.20;13.60
2751;DHT22;1383;48.362;10.908;2022-07-03T08:44:07;34.40;14.00
2751;DHT22;1383;48.362;10.908;2022-07-03T08:46:35;34.40;13.70
2751;DHT22;1383;48.362;10.908;2022-07-03T08:49:02;34.00;13.90
2751;DHT22;1383;48.362;10.908;2022-07-03T08:51:31;34.00;14.80
2751;DHT22;1383;48.362;10.908;2022-07-03T08:54:00;33.90;14.80
2751;DHT22;1383;48.362;10.908;2022-07-03T08:56:28;33.80;14.50
2751;DHT22;1383;48.362;10.908;2022-07-03T08:58:58;34.00;15.40
2751;DHT22;1383;48.362;10.908;2022-07-03T09:01:28;34.40;14.60
2751;DHT22;1383;48.362;10.908;2022-07-03T09:03:57;34.30;14.10
2751;DHT22;1383;48.362;10.908;2022-07-03T09:06:25;34.20;13.60
2751;DHT22;1383;48.362;10.908;2022-07-03T09:08:53;34.20;13.60
2751;DHT22;1383;48.362;10.908;2022-07-03T09:11:23;34.00;14.40
2751;DHT22;1383;48.362;10.908;2022-07-03T09:13:50;34.00;14.80
2751;DHT22;1383;48.362;10.908;2022-07-03T09:16:20;33.90;14.80
2751;DHT22;1383;48.362;10.908;2022-07-03T09:18:47;34.10;15.10
2751;DHT22;1383;48.362;10.908;2022-07-03T09:21:16;34.30;14.40
2751;DHT22;1383;48.362;10.908;2022-07-03T09:23:44;34.30;13.70
2751;DHT22;1383;48.362;10.908;2022-07-03T09:26:16;34.50;12.40
2751;DHT22;1383;48.362;10.908;2022-07-03T09:31:20;34.60;12.20
2751;DHT22;1383;48.362;10.908;2022-07-03T09:33:53;34.40;12.80
2751;DHT22;1383;48.362;10.908;2022-07-03T09:36:44;34.70;12.10
2751;DHT22;1383;48.362;10.908;2022-07-03T09:39:24;34.80;11.30
2751;DHT22;1383;48.362;10.908;2022-07-03T09:42:00;34.90;11.20
2751;DHT22;1383;48.362;10.908;2022-07-03T09:44:38;35.00;11.00
2751;DHT22;1383;48.362;10.908;2022-07-03T09:47:17;35.30;10.60
2751;DHT22;1383;48.362;10.908;2022-07-03T09:52:37;35.40;10.10
2751;DHT22;1383;48.362;10.908;2022-07-03T09:57:43;35.70;9.20
2751;DHT22;1383;48.362;10.908;2022-07-03T10:00:28;35.60;9.40
2751;DHT22;1383;48.362;10.908;2022-07-03T10:03:03;35.30;9.60
2751;DHT22;1383;48.362;10.908;2022-07-03T10:05:41;35.30;9.00
2751;DHT22;1383;48.362;10.908;2022-07-03T10:08:13;35.10;9.40
2751;DHT22;1383;48.362;10.908;2022-07-03T10:10:46;35.20;8.80
2751;DHT22;1383;48.362;10.908;2022-07-03T10:13:14;35.40;9.50
2751;DHT22;1383;48.362;10.908;2022-07-03T10:15:42;35.50;8.80
2751;DHT22;1383;48.362;10.908;2022-07-03T10:18:12;35.70;8.60
2751;DHT22;1383;48.362;10.908;2022-07-03T10:20:49;36.00;8.10
2751;DHT22;1383;48.362;10.908;2022-07-03T10:23:21;36.20;8.30
2751;DHT22;1383;48.362;10.908;2022-07-03T10:25:48;36.30;7.80
2751;DHT22;1383;48.362;10.908;2022-07-03T10:28:16;36.10;5.70
2751;DHT22;1383;48.362;10.908;2022-07-03T10:30:45;36.40;6.00
2751;DHT22;1383;48.362;10.908;2022-07-03T10:33:12;36.60;6.10
2751;DHT22;1383;48.362;10.908;2022-07-03T10:35:42;36.30;6.00
2751;DHT22;1383;48.362;10.908;2022-07-03T10:41:23;36.60;6.30
2751;DHT22;1383;48.362;10.908;2022-07-03T10:44:13;36.90;4.30
2751;DHT22;1383;48.362;10.908;2022-07-03T10:46:58;36.60;5.50
2751;DHT22;1383;48.362;10.908;2022-07-03T10:49:31;36.80;5.50
2751;DHT22;1383;48.362;10.908;2022-07-03T10:52:01;36.90;4.50
2751;DHT22;1383;48.362;10.908;2022-07-03T10:54:31;36.60;3.40
2751;DHT22;1383;48.362;10.908;2022-07-03T11:05:36;33.70;6.10
2751;DHT22;1383;48.362;10.908;2022-07-03T11:08:04;32.80;7.50
2751;DHT22;1383;48.362;10.908;2022-07-03T11:10:33;32.30;8.40
2751;DHT22;1383;48.362;10.908;2022-07-03T11:13:08;32.00;9.30
2751;DHT22;1383;48.362;10.908;2022-07-03T11:15:41;31.60;9.00
2751;DHT22;1383;48.362;10.908;2022-07-03T11:18:09;31.40;8.40
2751;DHT22;1383;48.362;10.908;2022-07-03T11:25:44;30.60;10.30
2751;DHT22;1383;48.362;10.908;2022-07-03T11:38:45;29.90;10.50
2751;DHT22;1383;48.362;10.908;2022-07-03T11:41:16;29.50;10.70
2751;DHT22;1383;48.362;10.908;2022-07-03T11:43:50;29.30;11.70
2751;DHT22;1383;48.362;10.908;2022-07-03T11:46:23;29.30;11.70
2751;DHT22;1383;48.362;10.908;2022-07-03T11:51:30;29.30;12.10
2751;DHT22;1383;48.362;10.908;2022-07-03T11:53:57;29.40;12.40
2751;DHT22;1383;48.362;10.908;2022-07-03T11:56:24;29.50;11.50
2751;DHT22;1383;48.362;10.908;2022-07-03T11:58:59;29.60;12.10
2751;DHT22;1383;48.362;10.908;2022-07-03T12:09:29;29.60;12.00
2751;DHT22;1383;48.362;10.908;2022-07-03T12:12:02;29.70;12.10
2751;DHT22;1383;48.362;10.908;2022-07-03T12:14:49;29.80;11.30
2751;DHT22;1383;48.362;10.908;2022-07-03T12:17:21;29.70;11.50
2751;DHT22;1383;48.362;10.908;2022-07-03T12:22:40;29.70;11.40
2751;DHT22;1383;48.362;10.908;2022-07-03T12:25:10;29.80;12.00
2751;DHT22;1383;48.362;10.908;2022-07-03T12:27:39;29.80;11.60
2751;DHT22;1383;48.362;10.908;2022-07-03T12:30:08;29.80;11.90
2751;DHT22;1383;48.362;10.908;2022-07-03T12:32:37;29.80;11.90
2751;DHT22;1383;48.362;10.908;2022-07-03T12:35:05;29.70;11.90
2751;DHT22;1383;48.362;10.908;2022-07-03T12:37:39;29.70;12.50
2751;DHT22;1383;48.362;10.908;2022-07-03T12:40:12;29.60;12.20
2751;DHT22;1383;48.362;10.908;2022-07-03T12:42:52;29.50;12.20
2751;DHT22;1383;48.362;10.908;2022-07-03T12:45:21;29.60;12.10
2751;DHT22;1383;48.362;10.908;2022-07-03T12:48:03;29.50;12.30
2751;DHT22;1383;48.362;10.908;2022-07-03T12:50:50;29.60;12.50
2751;DHT22;1383;48.362;10.908;2022-07-03T12:53:32;29.60;12.60
2751;DHT22;1383;48.362;10.908;2022-07-03T12:56:07;29.70;12.40
2751;DHT22;1383;48.362;10.908;2022-07-03T12:58:43;29.80;12.60
2751;DHT22;1383;48.362;10.908;2022-07-03T13:01:31;29.80;12.30
2751;DHT22;1383;48.362;10.908;2022-07-03T13:04:00;29.90;12.00
2751;DHT22;1383;48.362;10.908;2022-07-03T13:06:28;29.90;12.10
2751;DHT22;1383;48.362;10.908;2022-07-03T13:08:56;29.90;12.60
2751;DHT22;1383;48.362;10.908;2022-07-03T13:11:29;30.00;12.30
2751;DHT22;1383;48.362;10.908;2022-07-03T13:14:05;30.00;12.40
2751;DHT22;1383;48.362;10.908;2022-07-03T13:19:14;29.80;12.30
2751;DHT22;1383;48.362;10.908;2022-07-03T13:21:41;29.80;12.50
2751;DHT22;1383;48.362;10.908;2022-07-03T13:24:12;29.80;12.70
2751;DHT22;1383;48.362;10.908;2022-07-03T13:26:39;29.80;12.90
2751;DHT22;1383;48.362;10.908;2022-07-03T13:29:06;29.80;12.30
2751;DHT22;1383;48.362;10.908;2022-07-03T13:31:33;29.80;12.60
2751;DHT22;1383;48.362;10.908;2022-07-03T13:34:01;29.80;12.90
2751;DHT22;1383;48.362;10.908;2022-07-03T13:36:29;29.80;13.50
2751;DHT22;1383;48.362;10.908;2022-07-03T13:38:57;29.80;13.10
2751;DHT22;1383;48.362;10.908;2022-07-03T13:41:24;29.90;13.20
2751;DHT22;1383;48.362;10.908;2022-07-03T13:43:52;29.90;13.00
2751;DHT22;1383;48.362;10.908;2022-07-03T13:46:20;29.90;12.80
2751;DHT22;1383;48.362;10.908;2022-07-03T13:48:52;29.90;12.90
2751;DHT22;1383;48.362;10.908;2022-07-03T13:51:20;30.00;12.90
2751;DHT22;1383;48.362;10.908;2022-07-03T13:53:48;30.00;12.80
2751;DHT22;1383;48.362;10.908;2022-07-03T13:56:17;30.00;13.40
2751;DHT22;1383;48.362;10.908;2022-07-03T13:58:44;30.10;13.40
2751;DHT22;1383;48.362;10.908;2022-07-03T14:01:20;30.30;13.00
2751;DHT22;1383;48.362;10.908;2022-07-03T14:03:48;30.20;11.50
2751;DHT22;1383;48.362;10.908;2022-07-03T14:06:15;30.30;11.60
2751;DHT22;1383;48.362;10.908;2022-07-03T14:08:46;30.20;12.40
2751;DHT22;1383;48.362;10.908;2022-07-03T14:11:21;30.30;12.60
2751;DHT22;1383;48.362;10.908;2022-07-03T14:13:49;30.40;12.50
2751;DHT22;1383;48.362;10.908;2022-07-03T14:16:15;30.40;12.60
2751;DHT22;1383;48.362;10.908;2022-07-03T14:18:42;30.40;12.40
2751;DHT22;1383;48.362;10.908;2022-07-03T14:21:09;30.40;12.80
2751;DHT22;1383;48.362;10.908;2022-07-03T14:23:37;30.40;12.80
2751;DHT22;1383;48.362;10.908;2022-07-03T14:26:03;30.50;12.50
2751;DHT22;1383;48.362;10.908;2022-07-03T14:28:34;30.50;12.80
2751;DHT22;1383;48.362;10.908;2022-07-03T14:31:20;30.50;13.00
2751;DHT22;1383;48.362;10.908;2022-07-03T14:34:07;30.60;12.60
2751;DHT22;1383;48.362;10.908;2022-07-03T14:36:35;30.60;12.60
2751;DHT22;1383;48.362;10.908;2022-07-03T14:39:11;30.60;12.70
2751;DHT22;1383;48.362;10.908;2022-07-03T14:41:41;30.70;12.30
2751;DHT22;1383;48.362;10.908;2022-07-03T14:44:09;30.60;12.40
2751;DHT22;1383;48.362;10.908;2022-07-03T14:46:36;30.50;12.80
2751;DHT22;1383;48.362;10.908;2022-07-03T14:49:03;30.60;13.00
2751;DHT22;1383;48.362;10.908;2022-07-03T14:51:31;30.60;12.80
2751;DHT22;1383;48.362;10.908;2022-07-03T14:54:03;30.50;13.10
2751;DHT22;1383;48.362;10.908;2022-07-03T14:56:39;30.60;13.40
2751;DHT22;1383;48.362;10.908;2022-07-03T14:59:10;30.50;13.30
2751;DHT22;1383;48.362;10.908;2022-07-03T15:01:40;30.50;13.40
2751;DHT22;1383;48.362;10.908;2022-07-03T15:04:20;30.60;13.30
2751;DHT22;1383;48.362;10.908;2022-07-03T15:06:53;30.60;12.60
2751;DHT22;1383;48.362;10.908;2022-07-03T15:09:28;30.60;12.50
2751;DHT22;1383;48.362;10.908;2022-07-03T15:11:56;30.60;12.20
2751;DHT22;1383;48.362;10.908;2022-07-03T15:14:43;30.60;12.70
2751;DHT22;1383;48.362;10.908;2022-07-03T15:17:15;30.70;12.40
2751;DHT22;1383;48.362;10.908;2022-07-03T15:19:43;30.80;12.20
2751;DHT22;1383;48.362;10.908;2022-07-03T15:22:15;30.70;12.40
2751;DHT22;1383;48.362;10.908;2022-07-03T15:24:43;30.70;12.90
2751;DHT22;1383;48.362;10.908;2022-07-03T15:27:23;30.70;12.60
2751;DHT22;1383;48.362;10.908;2022-07-03T15:29:51;30.60;13.00
2751;DHT22;1383;48.362;10.908;2022-07-03T15:32:18;30.60;13.40
2751;DHT22;1383;48.362;10.908;2022-07-03T15:34:46;30.60;13.50
2751;DHT22;1383;48.362;10.908;2022-07-03T15:40:18;30.50;12.60
2751;DHT22;1383;48.362;10.908;2022-07-03T15:51:09;30.40;14.10
2751;DHT22;1383;48.362;10.908;2022-07-03T15:53:40;30.50;13.90
2751;DHT22;1383;48.362;10.908;2022-07-03T15:56:09;30.40;14.20
2751;DHT22;1383;48.362;10.908;2022-07-03T15:58:40;30.40;14.10
2751;DHT22;1383;48.362;10.908;2022-07-03T16:01:15;30.40;14.90
2751;DHT22;1383;48.362;10.908;2022-07-03T16:04:10;30.30;14.40
2751;DHT22;1383;48.362;10.908;2022-07-03T16:06:44;30.30;15.40
2751;DHT22;1383;48.362;10.908;2022-07-03T16:09:13;30.30;14.70
2751;DHT22;1383;48.362;10.908;2022-07-03T16:11:40;30.30;14.60
2751;DHT22;1383;48.362;10.908;2022-07-03T16:14:08;30.30;14.30
2751;DHT22;1383;48.362;10.908;2022-07-03T16:16:35;30.20;14.30
2751;DHT22;1383;48.362;10.908;2022-07-03T16:19:04;30.20;14.50
2751;DHT22;1383;48.362;10.908;2022-07-03T16:21:32;30.20;14.80
2751;DHT22;1383;48.362;10.908;2022-07-03T16:23:59;30.20;15.00
2751;DHT22;1383;48.362;10.908;2022-07-03T16:26:28;30.10;15.10
2751;DHT22;1383;48.362;10.908;2022-07-03T16:28:56;30.20;14.80
2751;DHT22;1383;48.362;10.908;2022-07-03T16:31:27;30.10;15.10
2751;DHT22;1383;48.362;10.908;2022-07-03T16:34:09;30.10;14.00
2751;DHT22;1383;48.362;10.908;2022-07-03T16:36:45;30.10;14.10
2751;DHT22;1383;48.362;10.908;2022-07-03T16:39:15;30.10;14.30
2751;DHT22;1383;48.362;10.908;2022-07-03T16:41:46;30.10;14.60
2751;DHT22;1383;48.362;10.908;2022-07-03T16:44:20;30.10;14.90
2751;DHT22;1383;48.362;10.908;2022-07-03T16:46:58;30.10;14.70
2751;DHT22;1383;48.362;10.908;2022-07-03T16:49:31;30.10;15.00
2751;DHT22;1383;48.362;10.908;2022-07-03T16:52:10;30.10;14.90
2751;DHT22;1383;48.362;10.908;2022-07-03T16:54:38;30.10;14.70
2751;DHT22;1383;48.362;10.908;2022-07-03T16:57:08;30.00;14.60
2751;DHT22;1383;48.362;10.908;2022-07-03T16:59:34;30.00;14.80
2751;DHT22;1383;48.362;10.908;2022-07-03T17:02:02;29.90;15.20
2751;DHT22;1383;48.362;10.908;2022-07-03T17:04:35;29.80;15.10
2751;DHT22;1383;48.362;10.908;2022-07-03T17:07:02;29.80;15.30
2751;DHT22;1383;48.362;10.908;2022-07-03T17:09:32;29.90;15.50
2751;DHT22;1383;48.362;10.908;2022-07-03T17:12:00;29.80;15.00
2751;DHT22;1383;48.362;10.908;2022-07-03T17:14:28;29.80;15.10
2751;DHT22;1383;48.362;10.908;2022-07-03T17:17:00;29.80;15.40
2751;DHT22;1383;48.362;10.908;2022-07-03T17:19:31;29.80;15.10
2751;DHT22;1383;48.362;10.908;2022-07-03T17:22:01;29.70;14.80
2751;DHT22;1383;48.362;10.908;2022-07-03T17:24:52;29.70;15.30
2751;DHT22;1383;48.362;10.908;2022-07-03T17:27:26;29.70;15.50
2751;DHT22;1383;48.362;10.908;2022-07-03T17:30:05;29.60;15.20
2751;DHT22;1383;48.362;10.908;2022-07-03T17:32:39;29.60;15.20
2751;DHT22;1383;48.362;10.908;2022-07-03T17:35:24;29.60;15.00
2751;DHT22;1383;48.362;10.908;2022-07-03T17:37:55;29.60;14.70
2751;DHT22;1383;48.362;10.908;2022-07-03T17:40:22;29.50;14.90